メインページ
METAR-TAF:

METAR-TAF

空港 :

エスファハーン・シャヒード・ベヘシュティー国際空港

エスファハーン, イラン

緯度: 32-28N, 経度: 051-43E, 海抜: 1590m

現時点の気象観測

当レポートは41分前の07:30(UTC)に作成
西/北西の風 4kt
気温 9°C
湿度 34%
気圧 1019 hPa
視程10km以上
1,500メートル以下は雲なし、積乱雲なし

METAR: OIFM 190730Z 29004KT CAVOK 09/M06 Q1018 A3009

時間: 11:41 (08:11 UTC)

予報

当レポートは2時間41分前の05:30(UTC)に作成
予報は19日の 06時(UTC)から 20日の 18時(UTC)まで有効
の風 4kt
視程10km以上
1,500メートル以下は雲なし、積乱雲なし
19日の 15時(UTC)から 19日の 18時(UTC)まで一時的に
北西の風 18kt

TAF: OIFM 190530Z 1906/2018 36004KT CAVOK TEMPO 1915/1918 32018KT

4,000以上の空港の気象観測と天気予報(METAR報とTAF報)

利用可能な観測所は地図上に黄色い丸と赤い丸で示す。

丸の上にカーソルを重ねると観測所名を参照できる。

次にクリックすると気象観測と天気予報を参照できる。

マップの切り替え:黒色「×」印の緑ボタンをクリックして拡大、「-」印の緑ボタンをクリックして縮小、緑色の三角印をクリックして隣りの地図に切り替え


METAR-TAF: